Time;durP1;ratioP1;P1;durP2;ratioP2;P2;SDS_P1;SDS_P2;PMS_P1;PMS_P2;Temp;Humidity;BMP_temperature;BMP_pressure;BME280_temperature;BME280_humidity;BME280_pressure;Samples;Min_cycle;Max_cycle;Signal;HPM_P1;HPM_P2
2021/01/02 00:02:01;;;;;;;15.95;10.30;;;1.70;99.90;;;;;;4973443;28;20073;-84
2021/01/02 00:05:01;;;;;;;21.98;12.57;;;1.60;99.90;;;;;;4975120;28;20034;-85
2021/01/02 00:07:32;;;;;;;18.17;11.68;;;1.60;99.90;;;;;;4989690;28;20039;-84
2021/01/02 00:10:02;;;;;;;18.13;11.45;;;1.70;99.90;;;;;;4989696;28;20555;-84
2021/01/02 00:12:45;;;;;;;16.77;11.02;;;1.60;99.90;;;;;;4973559;28;20434;-84
2021/01/02 00:15:21;;;;;;;19.83;11.05;;;1.70;99.90;;;;;;4974920;28;20105;-84
2021/01/02 00:17:52;;;;;;;19.02;11.77;;;1.50;99.90;;;;;;4973498;28;20090;-84
2021/01/02 00:20:41;;;;;;;20.58;12.65;;;1.70;99.90;;;;;;4989775;28;20426;-85
2021/01/02 00:23:20;;;;;;;16.67;11.13;;;1.50;99.90;;;;;;4973324;28;20031;-85
2021/01/02 00:26:05;;;;;;;20.20;11.57;;;1.30;99.90;;;;;;4989676;28;20033;-85
2021/01/02 00:28:35;;;;;;;18.60;11.52;;;1.30;99.90;;;;;;4973706;28;20022;-85
2021/01/02 00:31:01;;;;;;;19.98;12.05;;;1.30;99.90;;;;;;4973236;28;20031;-85
2021/01/02 00:34:05;;;;;;;18.00;11.02;;;1.40;99.90;;;;;;4989574;28;20041;-85
2021/01/02 00:36:37;;;;;;;18.52;10.45;;;1.50;99.90;;;;;;4952387;28;20105;-86
2021/01/02 00:39:03;;;;;;;22.55;11.93;;;1.70;99.90;;;;;;4989268;28;20066;-85
2021/01/02 00:41:33;;;;;;;15.57;9.60;;;1.80;99.90;;;;;;4973271;28;20019;-85
2021/01/02 00:44:03;;;;;;;14.25;10.18;;;1.90;99.90;;;;;;4973392;28;20054;-85
2021/01/02 00:46:29;;;;;;;17.27;10.18;;;2.00;99.90;;;;;;4973243;28;20061;-85
2021/01/02 00:48:56;;;;;;;19.48;12.05;;;2.20;99.90;;;;;;4973112;28;20459;-85
2021/01/02 00:51:24;;;;;;;16.38;10.65;;;2.20;99.90;;;;;;4973082;28;20478;-85
2021/01/02 00:53:56;;;;;;;17.90;11.68;;;2.00;99.90;;;;;;4974255;28;20482;-85
2021/01/02 00:56:29;;;;;;;17.55;11.70;;;1.90;99.90;;;;;;4989447;28;20027;-85
2021/01/02 00:59:16;;;;;;;18.70;10.98;;;1.70;99.90;;;;;;4989542;28;20537;-85
2021/01/02 01:02:05;;;;;;;17.55;11.43;;;1.70;99.90;;;;;;4992758;28;20026;-85
2021/01/02 01:05:06;;;;;;;16.40;10.93;;;1.70;99.90;;;;;;4976527;28;20494;-84
2021/01/02 01:07:33;;;;;;;19.20;12.02;;;1.60;99.90;;;;;;4992715;28;20106;-85
2021/01/02 01:10:01;;;;;;;19.85;11.70;;;1.60;99.90;;;;;;4976582;28;20039;-84
2021/01/02 01:12:28;;;;;;;17.70;11.63;;;1.60;99.90;;;;;;4976364;28;20075;-84
2021/01/02 01:14:55;;;;;;;16.98;11.48;;;1.60;99.90;;;;;;4977510;28;20023;-85
2021/01/02 01:17:23;;;;;;;18.40;12.43;;;1.50;99.90;;;;;;4976406;28;20414;-85
2021/01/02 01:20:01;;;;;;;19.05;11.55;;;1.50;99.90;;;;;;4976167;28;20030;-85
2021/01/02 01:22:30;;;;;;;18.98;10.82;;;1.50;99.90;;;;;;4976259;28;20121;-85
2021/01/02 01:25:05;;;;;;;16.15;11.07;;;1.60;99.90;;;;;;4976067;28;20030;-84
2021/01/02 01:27:54;;;;;;;20.02;11.95;;;1.70;99.90;;;;;;4977398;28;20118;-84
2021/01/02 01:30:22;;;;;;;23.05;12.60;;;1.60;99.90;;;;;;4992322;28;20030;-85
2021/01/02 01:33:03;;;;;;;20.35;12.23;;;1.60;99.90;;;;;;4975772;28;20039;-85
2021/01/02 01:35:30;;;;;;;21.58;12.25;;;1.50;99.90;;;;;;4975961;28;20089;-84
2021/01/02 01:37:57;;;;;;;18.88;12.90;;;1.50;99.90;;;;;;4977036;28;20042;-84
2021/01/02 01:40:31;;;;;;;17.83;12.10;;;1.40;99.90;;;;;;4975989;28;20027;-85
2021/01/02 01:43:06;;;;;;;18.63;11.38;;;1.50;99.90;;;;;;4976361;28;20470;-84
2021/01/02 01:45:38;;;;;;;21.48;12.38;;;1.50;99.90;;;;;;4975743;28;20031;-84
2021/01/02 01:48:12;;;;;;;18.73;12.50;;;1.50;99.90;;;;;;4991848;28;20113;-85
2021/01/02 01:51:09;;;;;;;20.00;13.23;;;1.60;99.90;;;;;;4975581;28;20026;-85
2021/01/02 01:53:55;;;;;;;19.23;12.98;;;1.60;99.90;;;;;;4975605;28;20399;-85
2021/01/02 01:56:47;;;;;;;22.60;12.30;;;1.60;99.90;;;;;;4991752;28;20475;-84
2021/01/02 01:59:28;;;;;;;19.55;12.25;;;1.60;99.90;;;;;;4975468;28;20054;-85
2021/01/02 02:01:55;;;;;;;19.88;12.35;;;1.70;99.90;;;;;;4976167;28;20035;-84
2021/01/02 02:04:55;;;;;;;20.73;12.90;;;1.80;99.90;;;;;;4975021;28;20019;-85
2021/01/02 02:07:41;;;;;;;18.80;12.77;;;1.70;99.90;;;;;;4991487;28;20116;-84
2021/01/02 02:10:08;;;;;;;19.10;12.88;;;1.70;99.90;;;;;;4991150;28;20035;-85
2021/01/02 02:12:35;;;;;;;20.45;12.60;;;1.70;99.90;;;;;;4974639;28;20483;-84
2021/01/02 02:15:01;;;;;;;20.17;12.95;;;1.70;99.90;;;;;;4991439;28;20031;-85
2021/01/02 02:17:34;;;;;;;18.92;12.25;;;1.70;99.90;;;;;;4991262;28;20037;-84
2021/01/02 02:20:06;;;;;;;25.13;12.98;;;1.70;99.90;;;;;;4975148;28;20027;-85
2021/01/02 02:22:36;;;;;;;19.05;11.88;;;1.70;99.90;;;;;;4991219;28;20034;-85
2021/01/02 02:25:04;;;;;;;21.98;13.20;;;1.70;99.90;;;;;;4975051;28;20023;-85
2021/01/02 02:27:35;;;;;;;15.65;11.80;;;1.70;99.90;;;;;;4974974;28;20027;-85
2021/01/02 02:30:23;;;;;;;20.58;13.48;;;1.70;99.90;;;;;;4975245;28;20027;-85
2021/01/02 02:32:49;;;;;;;19.85;13.35;;;1.70;99.90;;;;;;4974756;28;20046;-85
2021/01/02 02:35:19;;;;;;;20.52;12.85;;;1.70;99.90;;;;;;4974913;28;20078;-84
2021/01/02 02:37:51;;;;;;;18.35;11.85;;;1.70;99.90;;;;;;4974707;28;20027;-85
2021/01/02 02:40:19;;;;;;;23.30;13.00;;;1.70;99.90;;;;;;4976033;28;20101;-84
2021/01/02 02:43:00;;;;;;;18.45;12.07;;;1.80;99.90;;;;;;4974762;28;20023;-84
2021/01/02 02:45:30;;;;;;;19.63;11.77;;;1.60;99.90;;;;;;4974713;28;20023;-85
2021/01/02 02:48:02;;;;;;;18.27;12.80;;;1.60;99.90;;;;;;4974588;28;20390;-85
2021/01/02 02:50:28;;;;;;;19.13;13.45;;;1.50;99.90;;;;;;4974591;28;20030;-85
2021/01/02 02:53:12;;;;;;;16.35;11.70;;;1.60;99.90;;;;;;4974525;28;20364;-85
2021/01/02 02:55:39;;;;;;;19.65;12.95;;;1.70;99.90;;;;;;4974467;28;20058;-85
2021/01/02 02:58:05;;;;;;;19.70;12.85;;;1.80;99.90;;;;;;4974346;28;20031;-84
2021/01/02 03:00:31;;;;;;;21.70;13.75;;;1.90;99.90;;;;;;4974355;28;20149;-85
2021/01/02 03:02:57;;;;;;;20.35;13.38;;;1.80;99.90;;;;;;4990491;28;20037;-85
2021/01/02 03:05:23;;;;;;;20.88;14.25;;;1.90;99.90;;;;;;4974610;28;20030;-85
2021/01/02 03:07:50;;;;;;;21.92;14.45;;;2.00;99.90;;;;;;4974194;28;20055;-85
2021/01/02 03:10:20;;;;;;;23.75;13.65;;;1.80;99.90;;;;;;4974198;28;20030;-84
2021/01/02 03:12:50;;;;;;;17.88;12.65;;;1.80;99.90;;;;;;4974157;28;20033;-85
2021/01/02 03:15:30;;;;;;;21.48;13.98;;;1.90;99.90;;;;;;4974129;28;20482;-85
2021/01/02 03:17:56;;;;;;;19.20;13.05;;;1.90;99.90;;;;;;4974043;28;20382;-84
2021/01/02 03:20:22;;;;;;;20.67;12.68;;;1.90;99.90;;;;;;4975311;28;20101;-84
2021/01/02 03:22:49;;;;;;;19.90;13.95;;;1.80;99.90;;;;;;4974041;28;20534;-85
2021/01/02 03:25:17;;;;;;;25.55;15.32;;;1.90;99.90;;;;;;4973957;28;20023;-85
2021/01/02 03:27:43;;;;;;;21.08;14.82;;;1.90;99.90;;;;;;4973922;28;20074;-84
2021/01/02 03:30:11;;;;;;;24.75;15.38;;;1.80;99.90;;;;;;4973912;28;20117;-85
2021/01/02 03:32:38;;;;;;;24.35;15.60;;;1.80;99.90;;;;;;4989910;28;20104;-84
2021/01/02 03:35:06;;;;;;;24.20;15.20;;;1.80;99.90;;;;;;4973814;28;20027;-84
2021/01/02 03:37:34;;;;;;;24.73;16.10;;;1.80;99.90;;;;;;4973322;28;20027;-84
2021/01/02 03:40:00;;;;;;;22.95;15.32;;;1.80;99.90;;;;;;4973770;28;20509;-84
2021/01/02 03:42:26;;;;;;;22.13;13.98;;;1.70;99.90;;;;;;4973702;28;20029;-84
2021/01/02 03:44:52;;;;;;;24.73;15.90;;;1.90;99.90;;;;;;4974943;28;20027;-84
2021/01/02 03:47:17;;;;;;;23.00;14.32;;;1.90;99.90;;;;;;4973623;28;20406;-85
2021/01/02 03:49:43;;;;;;;26.60;16.77;;;1.90;99.90;;;;;;4973588;28;20081;-84
2021/01/02 03:52:09;;;;;;;23.38;15.80;;;1.90;99.90;;;;;;4974818;28;20030;-84
2021/01/02 03:54:35;;;;;;;24.90;16.27;;;1.80;99.90;;;;;;4974771;28;20031;-84
2021/01/02 03:57:01;;;;;;;21.27;15.45;;;1.80;99.90;;;;;;4973475;28;20387;-84
2021/01/02 03:59:27;;;;;;;23.65;15.77;;;1.70;99.90;;;;;;4974736;28;20026;-84
2021/01/02 04:01:53;;;;;;;25.55;16.52;;;1.80;99.90;;;;;;4973407;28;20080;-85
2021/01/02 04:04:19;;;;;;;24.52;16.15;;;1.80;99.90;;;;;;4989603;28;20466;-84
2021/01/02 04:06:45;;;;;;;25.88;16.67;;;1.70;99.90;;;;;;4973700;28;20086;-85
2021/01/02 04:09:11;;;;;;;28.35;16.70;;;1.70;99.90;;;;;;4974638;28;20038;-85
2021/01/02 04:11:44;;;;;;;24.52;16.77;;;1.70;99.90;;;;;;4973367;28;20035;-85
2021/01/02 04:14:10;;;;;;;25.92;16.80;;;1.70;99.90;;;;;;4973382;28;20033;-84
2021/01/02 04:16:37;;;;;;;26.90;16.63;;;1.60;99.90;;;;;;4973369;28;20439;-85
2021/01/02 04:19:04;;;;;;;23.90;15.52;;;1.50;99.90;;;;;;4973233;28;20494;-84
2021/01/02 04:21:30;;;;;;;26.63;16.23;;;1.70;99.90;;;;;;4973337;28;20021;-84
2021/01/02 04:23:56;;;;;;;23.00;15.93;;;1.70;99.90;;;;;;4973237;28;20117;-85
2021/01/02 04:26:23;;;;;;;22.35;14.63;;;1.70;99.90;;;;;;4973325;28;20158;-85
2021/01/02 04:28:49;;;;;;;26.83;18.42;;;1.80;99.90;;;;;;4973256;28;20045;-85
2021/01/02 04:31:15;;;;;;;26.30;16.13;;;1.80;99.90;;;;;;4973036;28;20050;-85
2021/01/02 04:33:41;;;;;;;27.42;17.48;;;1.70;99.90;;;;;;4973300;28;20026;-85
2021/01/02 04:36:07;;;;;;;27.05;17.08;;;1.60;99.90;;;;;;4977001;28;20406;-85
2021/01/02 04:38:33;;;;;;;24.83;15.68;;;1.60;99.90;;;;;;4976890;28;20034;-85
2021/01/02 04:40:59;;;;;;;24.48;16.70;;;1.70;99.90;;;;;;4976936;28;20077;-84
2021/01/02 04:43:25;;;;;;;31.73;17.33;;;1.80;99.90;;;;;;4976860;28;20026;-84
2021/01/02 04:45:53;;;;;;;26.58;17.63;;;1.80;99.90;;;;;;4977110;28;20105;-84
2021/01/02 04:48:18;;;;;;;26.40;15.38;;;1.90;99.90;;;;;;4976765;28;20026;-84
2021/01/02 04:50:45;;;;;;;26.50;17.30;;;2.00;99.90;;;;;;4976707;28;20470;-85
2021/01/02 04:53:13;;;;;;;23.73;16.20;;;1.90;99.90;;;;;;4992890;28;20027;-84
2021/01/02 04:55:45;;;;;;;28.75;16.83;;;1.90;99.90;;;;;;4977902;28;20034;-84
2021/01/02 04:58:14;;;;;;;29.60;17.98;;;1.90;99.90;;;;;;4976535;28;20062;-84
2021/01/02 05:00:41;;;;;;;25.02;15.18;;;1.90;99.90;;;;;;4977801;28;20026;-84
2021/01/02 05:03:07;;;;;;;28.67;17.85;;;1.90;99.90;;;;;;4976779;28;20035;-85
2021/01/02 05:05:34;;;;;;;23.75;15.00;;;1.80;99.90;;;;;;4976483;28;20027;-84
2021/01/02 05:08:01;;;;;;;27.75;18.33;;;1.70;99.90;;;;;;4976647;28;20046;-85
2021/01/02 05:10:27;;;;;;;23.67;16.98;;;1.80;99.90;;;;;;4976419;28;20030;-84
2021/01/02 05:13:07;;;;;;;27.23;16.10;;;1.80;99.90;;;;;;4976365;28;20098;-84
2021/01/02 05:15:33;;;;;;;26.67;18.23;;;1.80;99.90;;;;;;4976348;28;20470;-84
2021/01/02 05:17:59;;;;;;;27.30;17.42;;;1.80;99.90;;;;;;4976208;28;20030;-85
2021/01/02 05:20:25;;;;;;;31.02;18.65;;;1.80;99.90;;;;;;4976219;28;20019;-84
2021/01/02 05:22:51;;;;;;;29.92;19.15;;;1.80;99.90;;;;;;4976095;28;20023;-84
2021/01/02 05:25:19;;;;;;;31.02;17.20;;;1.80;99.90;;;;;;4977597;28;20026;-84
2021/01/02 05:27:48;;;;;;;27.38;17.63;;;1.80;99.90;;;;;;4976071;28;20077;-84
2021/01/02 05:30:16;;;;;;;29.60;17.92;;;1.90;99.90;;;;;;4976024;28;20023;-84
2021/01/02 05:33:08;;;;;;;34.00;18.73;;;1.70;99.90;;;;;;4991875;28;20042;-84
2021/01/02 05:35:45;;;;;;;25.35;15.98;;;1.70;99.90;;;;;;4977478;28;20470;-85
2021/01/02 05:38:19;;;;;;;27.08;17.08;;;1.80;99.90;;;;;;4975850;28;20473;-84
2021/01/02 05:40:49;;;;;;;26.92;16.48;;;1.80;99.90;;;;;;4977198;28;20019;-85
2021/01/02 05:43:16;;;;;;;28.20;18.08;;;1.90;99.90;;;;;;4975795;28;20031;-84
2021/01/02 05:45:42;;;;;;;31.77;19.10;;;1.90;99.90;;;;;;4975902;28;20030;-85
2021/01/02 05:48:20;;;;;;;31.95;18.45;;;1.90;99.90;;;;;;4976038;28;20023;-84
2021/01/02 05:51:02;;;;;;;24.63;15.15;;;1.90;99.90;;;;;;4975723;28;20038;-84
2021/01/02 05:53:32;;;;;;;30.27;18.23;;;2.00;99.90;;;;;;4975839;28;20073;-84
2021/01/02 05:56:08;;;;;;;31.75;18.70;;;1.90;99.90;;;;;;4975530;28;20122;-84
2021/01/02 05:58:44;;;;;;;29.70;18.42;;;1.80;99.90;;;;;;4991636;28;20056;-84
2021/01/02 06:01:18;;;;;;;29.73;18.05;;;1.80;99.90;;;;;;4975482;28;20033;-85
2021/01/02 06:03:46;;;;;;;23.08;13.98;;;1.90;99.90;;;;;;4975502;28;20023;-84
2021/01/02 06:06:13;;;;;;;34.35;19.63;;;1.90;99.90;;;;;;4975427;28;20089;-85
2021/01/02 06:08:46;;;;;;;28.30;17.92;;;1.90;99.90;;;;;;4975329;28;20505;-84
2021/01/02 06:11:21;;;;;;;27.48;18.33;;;1.90;99.90;;;;;;4975279;28;20022;-84
2021/01/02 06:13:51;;;;;;;30.10;19.05;;;2.00;99.90;;;;;;4976561;28;20098;-84
2021/01/02 06:16:18;;;;;;;33.60;18.45;;;2.00;99.90;;;;;;4975237;28;20058;-85
2021/01/02 06:18:46;;;;;;;32.10;18.67;;;1.90;99.90;;;;;;4975123;28;20027;-84
2021/01/02 06:21:17;;;;;;;31.00;18.80;;;1.90;99.90;;;;;;4975098;28;20371;-85
2021/01/02 06:23:50;;;;;;;35.95;21.95;;;1.90;99.90;;;;;;4975002;28;20111;-85
2021/01/02 06:26:20;;;;;;;31.25;19.70;;;1.80;99.90;;;;;;4975137;28;20026;-85
2021/01/02 06:28:46;;;;;;;32.70;20.60;;;1.80;99.90;;;;;;4975275;28;20042;-84
2021/01/02 06:31:16;;;;;;;33.85;19.38;;;1.90;99.90;;;;;;4974707;28;20035;-84
2021/01/02 06:33:46;;;;;;;29.17;18.20;;;1.80;99.90;;;;;;4974889;28;20469;-85
2021/01/02 06:36:35;;;;;;;30.35;19.63;;;1.80;99.90;;;;;;4974852;28;20122;-84
2021/01/02 06:39:31;;;;;;;35.22;19.48;;;1.90;99.90;;;;;;4974743;28;20031;-84
2021/01/02 06:41:58;;;;;;;33.65;19.55;;;1.90;99.90;;;;;;4974850;28;20648;-85
2021/01/02 06:44:43;;;;;;;31.88;19.42;;;1.90;99.90;;;;;;4990853;28;20042;-84
2021/01/02 06:47:16;;;;;;;36.65;20.63;;;1.90;99.90;;;;;;4974642;28;20027;-84
2021/01/02 06:49:42;;;;;;;33.05;20.35;;;1.80;99.90;;;;;;4974808;28;20085;-84
2021/01/02 06:52:10;;;;;;;31.15;19.38;;;1.80;99.90;;;;;;4974532;28;20133;-84
2021/01/02 06:54:39;;;;;;;29.67;18.55;;;1.80;99.90;;;;;;4976015;28;20027;-84
2021/01/02 06:57:06;;;;;;;35.63;21.15;;;1.90;99.90;;;;;;4973936;28;20023;-84
2021/01/02 06:59:32;;;;;;;37.08;20.67;;;1.90;99.90;;;;;;4974339;28;20034;-84
2021/01/02 07:01:58;;;;;;;36.35;21.33;;;1.90;99.90;;;;;;4974332;28;20031;-85
2021/01/02 07:04:37;;;;;;;37.78;21.23;;;1.90;99.90;;;;;;4974258;28;20033;-84
2021/01/02 07:07:05;;;;;;;36.28;21.95;;;1.80;99.90;;;;;;4975525;28;20019;-84
2021/01/02 07:09:31;;;;;;;37.45;21.42;;;1.80;99.90;;;;;;4974250;28;20385;-85
2021/01/02 07:12:13;;;;;;;34.58;19.55;;;1.80;99.90;;;;;;4974149;28;20109;-84
2021/01/02 07:14:40;;;;;;;37.53;20.33;;;1.80;99.90;;;;;;4974978;28;20423;-85
2021/01/02 07:17:11;;;;;;;36.13;20.00;;;1.90;99.90;;;;;;4974131;28;20110;-84
2021/01/02 07:19:46;;;;;;;33.45;19.50;;;1.80;99.90;;;;;;4974660;28;20434;-85
2021/01/02 07:22:20;;;;;;;35.28;19.30;;;1.90;99.90;;;;;;4973971;28;20055;-84
2021/01/02 07:25:19;;;;;;;38.47;20.77;;;1.90;99.90;;;;;;4975137;28;20027;-85
2021/01/02 07:27:44;;;;;;;34.95;19.45;;;1.80;99.90;;;;;;4973916;28;20038;-84
2021/01/02 07:30:12;;;;;;;36.42;20.10;;;1.90;99.90;;;;;;4973834;28;20027;-85
2021/01/02 07:32:41;;;;;;;40.40;22.38;;;1.90;99.90;;;;;;4973574;28;20054;-84
2021/01/02 07:35:11;;;;;;;37.63;20.40;;;1.90;99.90;;;;;;4974214;28;20030;-84
2021/01/02 07:37:47;;;;;;;36.13;18.90;;;1.90;99.90;;;;;;4973717;28;20039;-84
2021/01/02 07:40:17;;;;;;;34.88;20.00;;;2.00;99.90;;;;;;4973791;28;20023;-84
2021/01/02 07:42:50;;;;;;;36.10;19.90;;;2.00;99.90;;;;;;4973733;28;20022;-85
2021/01/02 07:45:19;;;;;;;37.50;19.92;;;2.00;99.90;;;;;;4973664;28;20023;-84
2021/01/02 07:47:50;;;;;;;41.83;21.45;;;2.00;99.90;;;;;;4973908;28;20033;-84
2021/01/02 07:50:18;;;;;;;36.00;19.90;;;1.90;99.90;;;;;;4973610;28;20509;-84
2021/01/02 07:53:00;;;;;;;43.78;21.38;;;1.80;99.90;;;;;;4973834;28;20125;-84
2021/01/02 07:55:29;;;;;;;39.78;20.73;;;1.80;99.90;;;;;;4973541;28;20161;-85
2021/01/02 07:57:55;;;;;;;36.97;20.30;;;1.80;99.90;;;;;;4973421;28;20027;-84
2021/01/02 08:00:22;;;;;;;37.40;19.83;;;1.80;99.90;;;;;;4973481;28;20506;-85
2021/01/02 08:02:48;;;;;;;37.20;19.80;;;1.90;99.90;;;;;;4973479;28;20031;-85
2021/01/02 08:05:16;;;;;;;38.72;19.65;;;1.90;99.90;;;;;;4973449;28;20023;-84
2021/01/02 08:07:54;;;;;;;39.53;20.83;;;1.90;99.90;;;;;;4973688;28;20031;-84
2021/01/02 08:10:20;;;;;;;33.78;19.08;;;1.90;99.90;;;;;;4976358;28;20054;-84
2021/01/02 08:12:48;;;;;;;40.08;21.35;;;1.90;99.90;;;;;;4977476;28;20078;-84
2021/01/02 08:15:24;;;;;;;37.65;20.33;;;1.90;99.90;;;;;;4977378;28;20031;-85
2021/01/02 08:17:50;;;;;;;57.13;32.20;;;1.90;99.90;;;;;;4978533;28;20026;-84
2021/01/02 08:20:16;;;;;;;45.75;25.23;;;2.00;99.90;;;;;;4977975;28;20030;-84
2021/01/02 08:22:42;;;;;;;40.72;21.95;;;1.90;99.90;;;;;;4977389;28;20493;-85
2021/01/02 08:25:16;;;;;;;40.85;24.13;;;1.90;99.90;;;;;;4978525;28;20431;-84
2021/01/02 08:27:48;;;;;;;63.03;36.20;;;1.90;99.90;;;;;;4977142;28;20026;-84
2021/01/02 08:30:15;;;;;;;37.47;21.33;;;1.90;99.90;;;;;;4974230;28;20089;-85
2021/01/02 08:32:45;;;;;;;43.58;22.88;;;1.90;99.90;;;;;;4978365;28;20061;-85
2021/01/02 08:35:19;;;;;;;39.30;22.13;;;1.90;99.90;;;;;;4977076;28;20022;-84
2021/01/02 08:37:46;;;;;;;41.05;23.25;;;1.90;99.90;;;;;;4977002;28;20031;-84
2021/01/02 08:40:13;;;;;;;35.72;18.60;;;1.90;99.90;;;;;;4976915;28;20130;-85
2021/01/02 08:42:41;;;;;;;34.75;19.48;;;2.00;99.90;;;;;;4976831;28;20082;-84
2021/01/02 08:45:08;;;;;;;36.67;19.27;;;1.90;99.90;;;;;;4978154;28;20426;-85
2021/01/02 08:47:38;;;;;;;37.22;19.60;;;2.00;99.90;;;;;;4976919;28;20027;-84
2021/01/02 08:50:12;;;;;;;38.92;19.67;;;2.10;99.90;;;;;;4976694;28;20027;-84
2021/01/02 08:52:38;;;;;;;37.55;18.73;;;2.00;99.90;;;;;;4977069;28;20031;-84
2021/01/02 08:55:16;;;;;;;33.97;19.70;;;2.10;99.90;;;;;;4976675;28;20037;-84
2021/01/02 08:57:47;;;;;;;38.22;19.52;;;2.00;99.90;;;;;;4976360;28;20027;-84
2021/01/02 09:00:21;;;;;;;34.97;19.63;;;2.00;99.90;;;;;;4976445;28;20026;-84
2021/01/02 09:02:59;;;;;;;36.28;19.80;;;2.00;99.90;;;;;;4977859;28;20146;-84
2021/01/02 09:05:33;;;;;;;34.45;18.65;;;2.00;99.90;;;;;;4992632;28;20023;-84
2021/01/02 09:08:00;;;;;;;;;;;2.00;99.90;;;;;;4976788;28;20054;-83
2021/01/02 09:10:29;;;;;;;34.97;17.85;;;2.10;99.90;;;;;;4976301;28;19906;-84
2021/01/02 09:13:08;;;;;;;37.65;18.77;;;2.10;99.90;;;;;;4976167;28;20027;-83
2021/01/02 09:15:43;;;;;;;29.58;17.17;;;2.00;99.90;;;;;;4975928;28;20019;-84
2021/01/02 09:18:09;;;;;;;32.00;17.10;;;2.10;99.90;;;;;;4992293;28;20120;-83
2021/01/02 09:20:35;;;;;;;34.28;18.63;;;2.10;99.90;;;;;;4976101;28;20022;-84
2021/01/02 09:23:01;;;;;;;34.17;18.08;;;2.10;99.90;;;;;;4976071;28;20034;-82
2021/01/02 09:25:30;;;;;;;31.85;17.98;;;2.10;99.90;;;;;;4977743;28;20031;-83
2021/01/02 09:28:09;;;;;;;36.78;17.77;;;2.10;99.90;;;;;;4976079;28;20071;-83
2021/01/02 09:30:35;;;;;;;32.10;17.42;;;2.10;99.90;;;;;;4977345;28;20023;-83
2021/01/02 09:33:00;;;;;;;32.65;17.65;;;2.10;99.90;;;;;;4976063;28;20146;-83
2021/01/02 09:35:26;;;;;;;35.25;17.83;;;2.20;99.90;;;;;;4975839;28;20038;-82
2021/01/02 09:37:52;;;;;;;33.13;18.05;;;2.20;99.90;;;;;;4977118;28;20070;-82
2021/01/02 09:40:20;;;;;;;32.90;18.30;;;2.10;99.90;;;;;;4975899;28;20027;-82
2021/01/02 09:42:47;;;;;;;32.17;18.33;;;2.10;99.90;;;;;;4991941;28;20499;-82
2021/01/02 09:45:13;;;;;;;33.28;17.83;;;2.10;99.90;;;;;;4975759;28;20027;-82
2021/01/02 09:47:39;;;;;;;33.05;18.58;;;2.20;99.90;;;;;;4975753;28;20505;-82
2021/01/02 09:50:06;;;;;;;33.72;18.00;;;2.20;99.90;;;;;;4975698;28;20027;-83
2021/01/02 09:52:32;;;;;;;31.33;17.67;;;2.30;99.90;;;;;;4975692;28;20058;-83
2021/01/02 09:54:58;;;;;;;29.50;17.38;;;2.30;99.90;;;;;;4975633;28;20419;-82
2021/01/02 09:57:24;;;;;;;33.33;18.80;;;2.30;99.90;;;;;;4975423;28;20398;-84
2021/01/02 09:59:49;;;;;;;30.15;17.20;;;2.30;99.90;;;;;;4975480;28;20061;-82
2021/01/02 10:02:15;;;;;;;34.08;20.17;;;2.30;99.90;;;;;;4991828;28;20414;-82
2021/01/02 10:04:45;;;;;;;35.45;18.70;;;2.30;99.90;;;;;;4976702;28;20377;-82
2021/01/02 10:07:11;;;;;;;31.58;19.33;;;2.30;99.90;;;;;;4975453;28;20023;-84
2021/01/02 10:09:46;;;;;;;31.67;17.58;;;2.20;99.90;;;;;;4991625;28;20039;-83
2021/01/02 10:12:14;;;;;;;30.15;17.10;;;2.20;99.90;;;;;;4976583;28;20482;-83
2021/01/02 10:14:40;;;;;;;30.48;17.85;;;2.30;99.90;;;;;;4976441;28;20121;-82
2021/01/02 10:17:06;;;;;;;30.95;19.13;;;2.30;99.90;;;;;;4975227;28;20459;-82
2021/01/02 10:19:32;;;;;;;30.83;18.13;;;2.30;99.90;;;;;;4976355;28;20030;-82
2021/01/02 10:21:59;;;;;;;33.55;18.17;;;2.40;99.90;;;;;;4991258;28;20038;-82
2021/01/02 10:24:26;;;;;;;34.35;19.92;;;2.30;99.90;;;;;;4974886;28;20023;-82
2021/01/02 10:26:52;;;;;;;34.83;18.55;;;2.40;99.90;;;;;;4976269;28;20023;-82
2021/01/02 10:29:18;;;;;;;31.52;18.40;;;2.50;99.90;;;;;;4974937;28;20031;-82
2021/01/02 10:31:44;;;;;;;29.13;17.40;;;2.50;99.90;;;;;;4975184;28;20557;-82
2021/01/02 10:34:10;;;;;;;26.13;16.25;;;2.60;99.90;;;;;;4974985;28;20085;-83
2021/01/02 10:36:35;;;;;;;29.38;17.02;;;2.60;99.90;;;;;;4974964;28;20023;-83
2021/01/02 10:39:02;;;;;;;30.70;17.98;;;2.60;99.90;;;;;;4974612;28;20035;-83
2021/01/02 10:41:27;;;;;;;29.98;16.83;;;2.60;99.90;;;;;;4974988;28;20031;-83
2021/01/02 10:43:53;;;;;;;28.45;16.45;;;2.60;99.90;;;;;;4974525;28;20026;-83
2021/01/02 10:46:19;;;;;;;29.30;16.67;;;2.60;99.90;;;;;;4974596;28;20027;-83
2021/01/02 10:48:44;;;;;;;29.75;17.40;;;2.70;99.90;;;;;;4974590;28;20437;-83
2021/01/02 10:51:15;;;;;;;31.55;17.30;;;2.70;99.90;;;;;;4975834;28;20033;-83
2021/01/02 10:53:40;;;;;;;35.88;20.08;;;2.60;99.90;;;;;;4975330;28;20030;-83
2021/01/02 10:56:16;;;;;;;33.30;18.65;;;2.50;99.90;;;;;;4974469;28;20034;-81
2021/01/02 10:58:42;;;;;;;30.88;18.17;;;2.50;99.90;;;;;;4976056;28;20033;-82
2021/01/02 11:01:08;;;;;;;34.45;19.67;;;2.30;99.90;;;;;;4975964;28;20027;-83
2021/01/02 11:03:35;;;;;;;35.63;18.38;;;2.20;99.90;;;;;;4974594;28;20034;-83
2021/01/02 11:06:08;;;;;;;31.10;17.60;;;2.30;99.90;;;;;;4975606;28;20057;-83
2021/01/02 11:08:35;;;;;;;32.65;17.70;;;2.30;99.90;;;;;;4974867;28;20058;-83
2021/01/02 11:11:02;;;;;;;32.58;18.38;;;2.30;99.90;;;;;;4974225;28;20039;-83
2021/01/02 11:13:28;;;;;;;29.42;17.55;;;2.30;99.90;;;;;;4974167;28;20127;-83
2021/01/02 11:15:54;;;;;;;32.30;18.17;;;2.40;99.90;;;;;;4974026;28;20114;-83
2021/01/02 11:18:20;;;;;;;31.08;17.50;;;2.40;99.90;;;;;;4975238;28;20031;-83
2021/01/02 11:20:46;;;;;;;34.63;18.52;;;2.50;99.90;;;;;;4974035;28;20034;-83
2021/01/02 11:23:19;;;;;;;29.98;16.45;;;2.50;99.90;;;;;;4973977;28;20054;-83
2021/01/02 11:25:46;;;;;;;29.25;17.15;;;2.60;99.90;;;;;;4975256;28;20050;-83
2021/01/02 11:28:13;;;;;;;29.40;17.35;;;2.60;99.90;;;;;;4975199;28;20026;-83
2021/01/02 11:30:39;;;;;;;31.88;17.48;;;2.50;99.90;;;;;;4973816;28;20026;-83
2021/01/02 11:33:06;;;;;;;28.95;16.10;;;2.50;99.90;;;;;;4973718;28;20046;-83
2021/01/02 11:35:32;;;;;;;32.55;17.15;;;2.60;99.90;;;;;;4973817;28;20483;-83
2021/01/02 11:37:58;;;;;;;28.67;16.50;;;2.70;99.90;;;;;;4973674;28;20090;-83
2021/01/02 11:40:24;;;;;;;29.85;16.90;;;2.60;99.90;;;;;;4974153;28;20027;-84
2021/01/02 11:42:50;;;;;;;31.65;16.50;;;2.70;99.90;;;;;;4973470;28;20026;-83
2021/01/02 11:45:20;;;;;;;27.90;16.15;;;2.80;99.90;;;;;;4973642;28;20031;-83
2021/01/02 11:47:47;;;;;;;28.63;16.92;;;2.80;99.90;;;;;;4975106;28;20018;-83
2021/01/02 11:50:13;;;;;;;29.45;17.50;;;2.70;99.90;;;;;;4975020;28;20037;-84
2021/01/02 11:52:39;;;;;;;29.65;16.55;;;2.70;99.90;;;;;;4973597;28;20387;-83
2021/01/02 11:55:06;;;;;;;27.85;16.77;;;2.70;99.90;;;;;;4973501;28;20027;-83
2021/01/02 11:57:33;;;;;;;27.45;17.42;;;2.60;99.90;;;;;;4973434;28;20055;-83
2021/01/02 11:59:59;;;;;;;30.25;17.30;;;2.50;99.90;;;;;;4973454;28;20019;-84
2021/01/02 12:02:26;;;;;;;26.67;15.98;;;2.50;99.90;;;;;;4973749;28;20489;-86
2021/01/02 12:04:51;;;;;;;26.40;15.98;;;2.60;99.90;;;;;;4973412;28;20023;-83
2021/01/02 12:07:17;;;;;;;23.45;15.02;;;2.70;99.90;;;;;;4973513;28;20146;-84
2021/01/02 12:09:44;;;;;;;29.02;16.25;;;2.60;99.90;;;;;;4973416;28;20031;-84
2021/01/02 12:12:10;;;;;;;24.85;16.10;;;2.60;99.90;;;;;;4974657;28;20030;-84
2021/01/02 12:14:36;;;;;;;26.95;14.75;;;2.70;99.90;;;;;;4973413;28;20034;-83
2021/01/02 12:17:08;;;;;;;28.20;16.55;;;2.70;99.90;;;;;;4973362;28;20031;-83
2021/01/02 12:19:34;;;;;;;21.88;14.10;;;2.80;99.90;;;;;;4973507;28;20085;-83
2021/01/02 12:22:03;;;;;;;25.77;14.82;;;2.80;99.90;;;;;;4974610;28;20026;-83
2021/01/02 12:24:29;;;;;;;23.55;14.55;;;2.80;99.90;;;;;;4973259;28;20077;-84
2021/01/02 12:26:58;;;;;;;24.33;15.00;;;2.80;99.90;;;;;;4973359;28;20026;-84
2021/01/02 12:29:25;;;;;;;19.77;12.45;;;2.80;99.90;;;;;;4974553;28;20019;-83
2021/01/02 12:31:54;;;;;;;24.38;13.52;;;2.80;99.90;;;;;;4973065;28;20039;-84
2021/01/02 12:34:27;;;;;;;27.27;15.80;;;2.80;99.90;;;;;;4973200;28;20162;-84
2021/01/02 12:36:54;;;;;;;23.13;14.35;;;2.90;99.90;;;;;;4973233;28;20105;-84
2021/01/02 12:39:23;;;;;;;25.80;15.35;;;2.80;99.90;;;;;;4973125;28;20037;-84
2021/01/02 12:41:49;;;;;;;24.67;15.25;;;2.90;99.90;;;;;;4974458;28;20027;-84
2021/01/02 12:44:15;;;;;;;26.95;16.02;;;2.80;99.90;;;;;;4973979;28;20434;-83
2021/01/02 12:46:44;;;;;;;22.70;14.50;;;2.70;99.90;;;;;;4973708;28;20019;-83
2021/01/02 12:49:11;;;;;;;28.73;15.95;;;2.60;99.90;;;;;;4975917;28;20027;-82
2021/01/02 12:51:37;;;;;;;25.27;15.60;;;2.60;99.90;;;;;;4977036;28;20027;-86
2021/01/02 12:54:04;;;;;;;22.90;13.93;;;2.50;99.90;;;;;;4989499;28;20027;-85